createdAt,value
2023-04-18T00:04:37.777Z,8.20
2023-04-18T00:14:43.799Z,8.10
2023-04-18T00:24:50.100Z,9.60
2023-04-18T00:34:56.007Z,8.90
2023-04-18T00:45:01.943Z,8.60
2023-04-18T00:55:10.135Z,9.20
2023-04-18T01:05:16.438Z,9.10
2023-04-18T01:15:22.207Z,8.30
2023-04-18T01:25:28.100Z,8.90
2023-04-18T01:35:34.834Z,8.50
2023-04-18T01:45:40.551Z,9.70
2023-04-18T01:55:46.422Z,12.00
2023-04-18T02:05:52.617Z,13.60
2023-04-18T02:15:58.339Z,11.20
2023-04-18T02:26:04.246Z,11.20
2023-04-18T02:36:10.740Z,12.20
2023-04-18T02:46:16.962Z,12.80
2023-04-18T02:56:22.940Z,14.10
2023-04-18T03:06:28.697Z,17.20
2023-04-18T03:16:34.700Z,17.80
2023-04-18T03:26:40.524Z,18.90
2023-04-18T03:36:48.013Z,19.30
2023-04-18T03:46:55.945Z,19.30
2023-04-18T03:57:03.173Z,20.30
2023-04-18T04:07:09.008Z,17.60
2023-04-18T04:17:14.697Z,20.50
2023-04-18T04:27:20.682Z,21.80
2023-04-18T04:37:26.295Z,20.80
2023-04-18T04:47:32.048Z,22.40
2023-04-18T04:57:38.029Z,21.20
2023-04-18T05:07:43.751Z,21.30
2023-04-18T05:17:49.555Z,24.10
2023-04-18T05:27:55.357Z,21.60
2023-04-18T05:38:01.893Z,22.40
2023-04-18T05:48:07.904Z,22.90
2023-04-18T05:58:13.714Z,21.60
2023-04-18T06:08:19.395Z,22.10
2023-04-18T06:18:25.188Z,19.70
2023-04-18T06:28:30.896Z,21.20
2023-04-18T06:38:36.685Z,22.10
2023-04-18T06:48:42.395Z,21.70
2023-04-18T06:58:48.716Z,19.80
2023-04-18T07:09:00.048Z,19.80
2023-04-18T07:19:06.260Z,20.50
2023-04-18T07:29:12.003Z,19.60
2023-04-18T07:39:17.690Z,18.90
2023-04-18T07:49:23.776Z,20.80
2023-04-18T07:59:32.305Z,19.40
2023-04-18T08:09:37.987Z,19.70
2023-04-18T08:19:45.182Z,19.20
2023-04-18T08:29:50.901Z,18.60
2023-04-18T08:39:56.612Z,18.50
2023-04-18T08:50:03.776Z,15.50
2023-04-18T09:00:12.123Z,16.30
2023-04-18T09:10:28.769Z,14.00
2023-04-18T09:20:37.733Z,13.80
2023-04-18T09:30:43.951Z,13.80
2023-04-18T09:41:07.799Z,11.20
2023-04-18T09:51:15.897Z,12.40
2023-04-18T10:01:21.629Z,11.40
2023-04-18T10:11:28.013Z,11.00
2023-04-18T10:21:33.754Z,11.50
2023-04-18T10:31:41.636Z,10.50
2023-04-18T10:41:52.513Z,11.00
2023-04-18T10:52:00.306Z,10.10
2023-04-18T11:02:20.351Z,11.10
2023-04-18T11:12:29.852Z,11.10
2023-04-18T11:22:44.183Z,10.10
2023-04-18T11:32:50.080Z,9.40
2023-04-18T11:42:56.847Z,11.40
2023-04-18T11:53:02.515Z,10.20
2023-04-18T12:03:16.369Z,10.10
2023-04-18T12:13:28.007Z,11.60
2023-04-18T12:23:36.894Z,7.60
2023-04-18T12:33:42.629Z,7.20
2023-04-18T12:43:48.316Z,7.70
2023-04-18T12:53:53.982Z,7.30
2023-04-18T13:04:11.019Z,5.50
2023-04-18T13:14:18.548Z,5.30
2023-04-18T13:24:24.252Z,6.90
2023-04-18T13:34:29.939Z,9.00
2023-04-18T13:44:36.639Z,9.80
2023-04-18T13:54:43.386Z,11.10
2023-04-18T14:04:49.310Z,11.20
2023-04-18T14:14:55.035Z,11.00
2023-04-18T14:25:01.303Z,11.00
2023-04-18T14:35:09.263Z,11.30
2023-04-18T14:45:16.407Z,11.10
2023-04-18T14:55:22.078Z,11.00
2023-04-18T15:05:28.106Z,10.80
2023-04-18T15:15:35.605Z,9.90
2023-04-18T15:25:41.418Z,10.10
2023-04-18T15:35:47.382Z,15.30
2023-04-18T15:45:53.511Z,10.40
2023-04-18T15:56:01.002Z,9.70
2023-04-18T16:06:07.148Z,8.80
2023-04-18T16:16:13.729Z,9.40
2023-04-18T16:26:19.949Z,11.50
2023-04-18T16:36:26.211Z,15.70
2023-04-18T16:46:32.748Z,9.90
2023-04-18T16:56:39.044Z,10.70
2023-04-18T17:06:44.710Z,8.10
2023-04-18T17:16:52.822Z,8.00
2023-04-18T17:27:00.435Z,8.00
2023-04-18T17:37:06.439Z,7.30
2023-04-18T17:47:12.116Z,9.00
2023-04-18T17:57:18.030Z,10.60
2023-04-18T18:07:23.825Z,10.10
2023-04-18T18:17:30.152Z,11.20
2023-04-18T18:27:36.202Z,12.60
2023-04-18T18:37:42.146Z,10.30
2023-04-18T18:47:48.444Z,10.30
2023-04-18T18:57:55.095Z,17.20
2023-04-18T19:08:04.120Z,17.50
2023-04-18T19:18:11.054Z,10.20
2023-04-18T19:28:18.404Z,8.90
2023-04-18T19:38:24.246Z,8.10
2023-04-18T19:48:30.261Z,8.40
2023-04-18T19:58:44.961Z,12.00
2023-04-18T20:08:51.018Z,11.00
2023-04-18T20:18:57.295Z,11.20
2023-04-18T20:29:04.045Z,11.40
2023-04-18T20:39:09.962Z,9.60
2023-04-18T20:49:15.866Z,7.50
2023-04-18T20:59:21.773Z,8.80
2023-04-18T21:09:27.642Z,7.10
2023-04-18T21:19:33.433Z,9.40
2023-04-18T21:29:39.289Z,9.00
2023-04-18T21:39:45.351Z,9.50
2023-04-18T21:49:51.975Z,9.30
2023-04-18T21:59:59.833Z,8.90
2023-04-18T22:20:13.073Z,9.50
2023-04-18T22:30:18.979Z,10.10
2023-04-18T22:40:24.772Z,9.20
2023-04-18T22:50:30.863Z,9.50
2023-04-18T23:00:37.053Z,9.20
2023-04-18T23:10:42.833Z,10.70
2023-04-18T23:20:48.540Z,11.90
2023-04-18T23:30:54.335Z,11.10
2023-04-18T23:41:00.043Z,12.10
2023-04-18T23:51:06.237Z,11.70
